TimeCST,TemperatureF,Dew PointF,Humidity,Sea Level PressureIn,VisibilityMPH,Wind Direction,Wind SpeedMPH,Gust SpeedMPH,PrecipitationIn,Events,Conditions,WindDirDegrees,DateUTC
12:55 AM,34.2,24.1,67,30.24,10.0,NW,8.1,-,N/A,,Clear,320,2013-01-17 06:55:00
1:55 AM,30.0,23.4,76,30.26,10.0,North,5.8,-,N/A,,Clear,360,2013-01-17 07:55:00
2:55 AM,31.5,23.4,72,30.26,10.0,North,3.5,-,N/A,,Clear,360,2013-01-17 08:55:00
3:55 AM,30.0,25.0,82,30.27,10.0,Calm,Calm,-,N/A,,Clear,0,2013-01-17 09:55:00
4:55 AM,30.0,23.9,78,30.27,10.0,Calm,Calm,-,N/A,,Clear,0,2013-01-17 10:55:00
5:55 AM,27.5,24.4,88,30.28,10.0,Calm,Calm,-,N/A,,Clear,0,2013-01-17 11:55:00
6:55 AM,28.2,23.2,81,30.30,10.0,Calm,Calm,-,N/A,,Clear,0,2013-01-17 12:55:00
7:55 AM,28.2,25.5,90,30.32,10.0,NNW,3.5,-,N/A,,Clear,330,2013-01-17 13:55:00
8:55 AM,36.9,26.8,67,30.36,10.0,NNW,8.1,-,N/A,,Clear,340,2013-01-17 14:55:00
9:55 AM,42.6,27.0,54,30.39,10.0,NNW,11.5,-,N/A,,Clear,340,2013-01-17 15:55:00
10:55 AM,46.4,27.3,47,30.39,10.0,North,6.9,-,N/A,,Clear,10,2013-01-17 16:55:00
11:55 AM,51.4,29.5,43,30.38,10.0,North,5.8,-,N/A,,Clear,350,2013-01-17 17:55:00
12:55 PM,54.5,31.3,41,30.34,10.0,North,5.8,-,N/A,,Clear,360,2013-01-17 18:55:00
1:47 PM,57.2,32.0,38,30.33,10.0,NW,5.8,-,N/A,,Light Drizzle,310,2013-01-17 19:47:00
1:55 PM,57.2,32.4,39,30.33,10.0,NW,4.6,-,0.00,,Clear,310,2013-01-17 19:55:00
2:55 PM,58.6,34.2,40,30.33,10.0,NNW,11.5,-,N/A,,Clear,330,2013-01-17 20:55:00
3:55 PM,59.2,34.2,39,30.35,10.0,North,11.5,-,N/A,,Clear,350,2013-01-17 21:55:00
4:55 PM,57.4,32.9,40,30.38,10.0,North,10.4,-,N/A,,Clear,360,2013-01-17 22:55:00
5:55 PM,51.3,33.4,51,30.40,10.0,North,4.6,-,N/A,,Clear,360,2013-01-17 23:55:00
6:55 PM,50.0,33.3,53,30.41,10.0,Calm,Calm,-,N/A,,Clear,0,2013-01-18 00:55:00
7:55 PM,44.8,33.4,64,30.43,10.0,Calm,Calm,-,N/A,,Clear,0,2013-01-18 01:55:00
8:55 PM,41.0,33.1,73,30.45,10.0,Calm,Calm,-,N/A,,Clear,0,2013-01-18 02:55:00
9:55 PM,38.8,36.3,91,30.47,10.0,Calm,Calm,-,N/A,,Clear,0,2013-01-18 03:55:00
10:55 PM,38.3,34.3,86,30.49,10.0,Calm,Calm,-,N/A,,Clear,0,2013-01-18 04:55:00
11:55 PM,39.7,32.0,74,30.51,10.0,Calm,Calm,-,N/A,,Clear,0,2013-01-18 05:55:00